Route Details

Aircraft Information
Group: Trans-Pacific Ops
Types: B744, MD11
Route Data
Distance: 2912nm
Duration: 6h 29m
Origin METAR: PANC 171053Z 00000KT 10SM -RA FEW008 SCT070 BKN100 11/09 A2936 RMK AO2 RAB00 SLP944 P0002 T01110094
Dest. METAR: KIAD 171052Z 32005KT 10SM BKN150 17/15 A3004 RMK AO2 SLP169 T01670150
Freight Data
(for Aug 18, 2022)
Load Factor:
39%
Manifested Cargo: 81,040lbs
Financial History
Total Freight: 171,100lbs
Average Load: 0lbs/flt
Fuel Used: 128,800lbs
Avg. Fuel Used: 0lbs/flt
Fuel Expense: $54,096
Avg. Fuel Expense: $0
Avg. Fuel Cost: $0/lbs
Total Gross Income: $463,681
Pilot Pay: $239
Total Expenses: $91,390
Total Revenue: $315,633
Average Revenue: $0

Capitol Logistics 835




PANC
Ted Stevens Anchorage International Airport
Anchorage, Alaska
KIAD
Washington Dulles International Airport
Dulles, Virginia

Activity Log

Date Flight Route Aircraft Duration
08/16/2022 CPX835 TED YESKA NCA13 JAGIT 60N130W YOJ/N0484F350 PETMA YQD VBI J538 DLL/N0484F370 J34 AIR J162 MGW GIBBZ4 B744 6h 28m